Hlavní strana
METAR-TAF:

METAR-TAF

Letiště :

Štýrský Hradec, Rakousko

zeměpisná šířka: 47-00N, zeměpisná délka: 015-26E, výška: 340 m

Aktuální stav počasí

Zpráva byla vytvořena před 25 minutami, v 04:20 UTC
Jihojihovýchodní vítr 3 kt
Teplota 0°C
Vlhkost vzduchu 100%
Tlak 1021 hPa
Viditelnost: 4300 m
Skoro jasno ve výšce 900 ft
Oblačno až skoro zataženo ve výšce 1100 ft
kouřmo

METAR: LOWG 180420Z AUTO 16003KT 4300 BR FEW009 BKN011 00/M00 Q1021

Čas: 05:45 (04:45 UTC)

Předpověď počasí

Zpráva byla vytvořena před 5 hodinami a 30 minutami, v 23:15 UTC
Předpověď platná od 18 v 00 UTC do 18 v 24 UTC
vítr z různých směrů 2 kt
Viditelnost: 8000 m
Skoro jasno ve výšce 2000 ft
Oblačno až skoro zataženo ve výšce 5000 ft
Dočasný
od 18 v 00 UTC do 18 v 08 UTC
Viditelnost: 2000 m
Zataženo ve výšce 600 ft
slabé sněžení, kouřmo
Dočasný
od 18 v 20 UTC do 18 v 24 UTC
Viditelnost: 1200 m

TAF: LOWG 172315Z 1800/1824 VRB02KT 8000 FEW020 BKN050 TX04/1813Z TNM02/1824Z TEMPO 1800/1808 2000 -SN BR OVC006 TEMPO 1820/1824 1200 FZBCFG

Stav a předpovědi počasí z více než 4 000 letišť (zprávy METAR a TAF).

Červené a žluté tečky na mapě představují dostupné meteorologické stanice.

Když kurzor umístíte na tečku, zobrazí se název stanice.

Pak kliknutím zobrazíte stav a předpověď počasí.

Chcete-li změnit mapu, kliknutím na zelené tlačítko se znaménkem +mapu přiblížíte, kliknutím na zelené tlačítko se znaménkem – mapu oddálíte a kliknutím na zelené šipky přejdete na sousední mapy.


METAR-TAF: